Time;durP1;ratioP1;P1;durP2;ratioP2;P2;SDS_P1;SDS_P2;PMS_P1;PMS_P2;Temp;Humidity;BMP_temperature;BMP_pressure;BME280_temperature;BME280_humidity;BME280_pressure;Samples;Min_cycle;Max_cycle;Signal;HPM_P1;HPM_P2
2023/12/09 00:01:20;;;;;;;7.75;3.45;;;8.90;99.90;;;;;;6123578;23;20053;-80
2023/12/09 00:03:45;;;;;;;10.32;3.63;;;8.90;99.90;;;;;;6098464;23;20029;-81
2023/12/09 00:06:11;;;;;;;13.18;4.63;;;9.00;99.90;;;;;;6096729;23;20010;-81
2023/12/09 00:08:37;;;;;;;10.05;3.63;;;8.90;99.90;;;;;;6097982;23;20001;-81
2023/12/09 00:11:03;;;;;;;10.63;3.17;;;8.90;99.90;;;;;;6095790;23;20009;-78
2023/12/09 00:13:28;;;;;;;11.63;4.15;;;8.90;99.90;;;;;;6124853;23;20012;-80
2023/12/09 00:15:54;;;;;;;10.48;4.10;;;8.90;99.90;;;;;;6101808;23;20014;-82
2023/12/09 00:18:19;;;;;;;9.30;3.40;;;8.90;99.90;;;;;;6101069;23;20428;-80
2023/12/09 00:20:45;;;;;;;7.82;2.47;;;8.90;99.90;;;;;;6124863;23;20001;-81
2023/12/09 00:23:10;;;;;;;9.00;3.10;;;9.00;99.90;;;;;;6124967;23;20034;-81
2023/12/09 00:25:36;;;;;;;12.13;3.22;;;9.00;99.90;;;;;;6124918;23;20064;-80
2023/12/09 00:28:02;;;;;;;7.95;2.90;;;8.90;99.90;;;;;;6098581;23;20013;-80
2023/12/09 00:30:28;;;;;;;10.82;3.83;;;9.00;99.90;;;;;;6097860;23;20002;-80
2023/12/09 00:32:54;;;;;;;15.30;4.38;;;9.00;99.90;;;;;;6123038;23;20002;-80
2023/12/09 00:35:19;;;;;;;14.75;4.32;;;9.00;99.90;;;;;;6096319;23;20009;-81
2023/12/09 00:37:45;;;;;;;11.10;3.53;;;9.00;99.90;;;;;;6124106;23;20002;-80
2023/12/09 00:40:11;;;;;;;6.50;2.85;;;9.00;99.90;;;;;;6120125;23;20141;-79
2023/12/09 00:42:37;;;;;;;9.27;3.45;;;9.00;99.90;;;;;;6094024;23;20381;-81
2023/12/09 00:45:04;;;;;;;9.45;3.40;;;9.00;99.90;;;;;;6093059;23;20037;-78
2023/12/09 00:47:30;;;;;;;8.45;3.58;;;9.00;99.90;;;;;;6093389;23;20109;-79
2023/12/09 00:49:55;;;;;;;14.07;5.03;;;9.00;99.90;;;;;;6120663;23;20885;-79
2023/12/09 00:52:21;;;;;;;13.55;4.25;;;9.00;99.90;;;;;;6092855;23;20010;-78
2023/12/09 00:54:47;;;;;;;9.00;3.35;;;9.00;99.90;;;;;;6121114;23;20663;-78
2023/12/09 00:57:12;;;;;;;10.25;3.67;;;9.00;99.90;;;;;;6090174;23;20005;-79
2023/12/09 00:59:38;;;;;;;14.18;4.32;;;9.00;99.90;;;;;;6093744;23;19997;-80
2023/12/09 01:02:03;;;;;;;9.30;3.20;;;9.00;99.90;;;;;;6095186;23;20037;-81
2023/12/09 01:04:29;;;;;;;13.85;4.22;;;9.00;99.90;;;;;;6121627;23;20026;-79
2023/12/09 01:06:56;;;;;;;8.57;2.97;;;9.00;99.90;;;;;;6120183;23;20079;-80
2023/12/09 01:09:22;;;;;;;13.68;4.70;;;9.00;99.90;;;;;;6122057;23;20002;-80
2023/12/09 01:11:47;;;;;;;8.23;3.15;;;9.00;99.90;;;;;;6094741;23;20056;-78
2023/12/09 01:14:13;;;;;;;10.02;3.42;;;9.00;99.90;;;;;;6098073;23;20114;-81
2023/12/09 01:16:39;;;;;;;5.60;2.50;;;9.00;99.90;;;;;;6126597;23;20013;-79
2023/12/09 01:19:04;;;;;;;8.75;3.03;;;9.00;99.90;;;;;;6126354;23;20089;-79
2023/12/09 01:21:30;;;;;;;6.20;2.72;;;9.00;99.90;;;;;;6126823;23;20049;-81
2023/12/09 01:23:55;;;;;;;11.88;3.88;;;9.00;99.90;;;;;;6127336;23;20073;-79
2023/12/09 01:26:21;;;;;;;8.73;3.22;;;9.00;99.90;;;;;;6095366;23;20037;-81
2023/12/09 01:28:46;;;;;;;13.63;4.25;;;9.00;99.90;;;;;;6094788;23;20081;-79
2023/12/09 01:31:12;;;;;;;14.85;4.07;;;8.90;99.90;;;;;;6095216;23;20419;-82
2023/12/09 01:33:38;;;;;;;12.95;3.80;;;8.90;99.90;;;;;;6094896;23;20022;-79
2023/12/09 01:36:04;;;;;;;14.07;4.07;;;8.90;99.90;;;;;;6095372;23;20006;-82
2023/12/09 01:38:29;;;;;;;9.98;2.90;;;8.90;99.90;;;;;;6095069;23;20452;-79
2023/12/09 01:40:55;;;;;;;13.50;3.72;;;8.90;99.90;;;;;;6093669;23;20002;-81
2023/12/09 01:43:22;;;;;;;12.73;4.15;;;8.90;99.90;;;;;;6093903;23;20065;-81
2023/12/09 01:45:49;;;;;;;8.35;3.40;;;8.80;99.90;;;;;;6094163;23;20007;-80
2023/12/09 01:48:16;;;;;;;12.38;3.63;;;8.80;99.90;;;;;;6094007;23;20036;-81
2023/12/09 01:50:41;;;;;;;13.93;5.10;;;8.80;99.90;;;;;;6094468;23;20006;-81
2023/12/09 01:53:07;;;;;;;12.70;4.10;;;8.80;99.90;;;;;;6094823;23;20379;-79
2023/12/09 01:55:33;;;;;;;12.95;5.65;;;8.80;99.90;;;;;;6094180;23;20082;-81
2023/12/09 01:57:59;;;;;;;16.92;5.03;;;8.80;99.90;;;;;;6096382;23;20539;-80
2023/12/09 02:00:25;;;;;;;9.45;4.03;;;8.80;99.90;;;;;;6093521;23;20436;-79
2023/12/09 02:02:51;;;;;;;11.77;4.00;;;8.80;99.90;;;;;;6095933;23;19998;-79
2023/12/09 02:05:16;;;;;;;12.55;4.00;;;8.90;99.90;;;;;;6094375;23;20002;-81
2023/12/09 02:07:42;;;;;;;10.73;3.67;;;8.90;99.90;;;;;;6094231;23;20006;-80
2023/12/09 02:10:09;;;;;;;10.82;3.72;;;8.90;99.90;;;;;;6093755;23;20011;-80
2023/12/09 02:12:52;;;;;;;14.23;4.30;;;8.80;99.90;;;;;;6092620;23;19998;-80
2023/12/09 02:15:33;;;;;;;14.73;4.68;;;8.80;99.90;;;;;;6095095;23;19998;-81
2023/12/09 02:18:03;;;;;;;14.48;4.65;;;8.80;99.90;;;;;;6093483;23;20440;-79
2023/12/09 02:20:29;;;;;;;9.35;4.00;;;8.80;99.90;;;;;;6097402;23;20013;-81
2023/12/09 02:23:08;;;;;;;11.32;4.28;;;8.80;99.90;;;;;;6094860;23;20002;-80
2023/12/09 02:25:34;;;;;;;11.07;3.90;;;8.80;99.90;;;;;;6114404;23;20014;-81
2023/12/09 02:28:25;;;;;;;8.57;3.50;;;8.80;99.90;;;;;;6098058;23;20010;-80
2023/12/09 02:31:03;;;;;;;10.98;3.60;;;8.90;99.90;;;;;;6100857;23;20084;-79
2023/12/09 02:33:29;;;;;;;14.20;4.43;;;8.80;99.90;;;;;;6126589;23;20006;-79
2023/12/09 02:35:56;;;;;;;12.05;4.25;;;8.80;99.90;;;;;;6126139;23;20010;-80
2023/12/09 02:38:23;;;;;;;11.13;3.85;;;8.80;99.90;;;;;;6100339;23;19998;-81
2023/12/09 02:40:49;;;;;;;17.92;5.35;;;8.80;99.90;;;;;;6100804;23;20017;-81
2023/12/09 02:43:16;;;;;;;9.10;3.85;;;8.80;99.90;;;;;;6127226;23;20608;-80
2023/12/09 02:45:45;;;;;;;19.52;4.90;;;8.80;99.90;;;;;;6100199;23;20006;-79
2023/12/09 02:48:11;;;;;;;15.27;5.25;;;8.80;99.90;;;;;;6100108;23;20033;-82
2023/12/09 02:50:36;;;;;;;11.85;4.07;;;8.70;99.90;;;;;;6127188;23;20002;-81
2023/12/09 02:53:02;;;;;;;13.15;4.25;;;8.80;99.90;;;;;;6126867;23;20002;-81
2023/12/09 02:55:28;;;;;;;12.57;4.10;;;8.70;99.90;;;;;;6126473;23;20638;-79
2023/12/09 02:57:53;;;;;;;11.50;3.25;;;8.70;99.90;;;;;;6126814;23;20002;-80
2023/12/09 03:00:19;;;;;;;6.38;2.55;;;8.70;99.90;;;;;;6126456;23;20026;-80
2023/12/09 03:02:44;;;;;;;9.38;3.10;;;8.70;99.90;;;;;;6125431;23;20005;-81
2023/12/09 03:05:10;;;;;;;10.05;3.53;;;8.80;99.90;;;;;;6100128;23;20113;-80
2023/12/09 03:07:35;;;;;;;11.38;3.67;;;8.80;99.90;;;;;;6100482;23;20006;-79
2023/12/09 03:10:01;;;;;;;5.70;3.00;;;8.80;99.90;;;;;;6100322;23;20006;-81
2023/12/09 03:12:27;;;;;;;9.85;3.47;;;8.70;99.90;;;;;;6100400;23;20005;-79
2023/12/09 03:14:53;;;;;;;12.13;4.45;;;8.80;99.90;;;;;;6101881;23;20002;-82
2023/12/09 03:17:19;;;;;;;9.00;3.38;;;8.80;99.90;;;;;;6100747;23;20001;-81
2023/12/09 03:19:44;;;;;;;7.70;3.38;;;8.80;99.90;;;;;;6126377;23;20313;-81
2023/12/09 03:22:10;;;;;;;13.00;3.45;;;8.80;99.90;;;;;;6100658;23;20013;-80
2023/12/09 03:24:35;;;;;;;6.63;2.47;;;8.80;99.90;;;;;;6095291;23;20002;-80
2023/12/09 03:27:01;;;;;;;10.60;3.30;;;8.80;99.90;;;;;;6095877;23;20009;-81
2023/12/09 03:29:26;;;;;;;16.23;5.43;;;8.80;99.90;;;;;;6096886;23;20348;-80
2023/12/09 03:31:52;;;;;;;14.88;4.65;;;8.80;99.90;;;;;;6096776;23;20021;-82
2023/12/09 03:34:17;;;;;;;10.50;3.78;;;8.70;99.90;;;;;;6097241;23;20003;-80
2023/12/09 03:36:43;;;;;;;8.23;3.20;;;8.70;99.90;;;;;;6098922;23;20014;-80
2023/12/09 03:39:09;;;;;;;10.07;3.65;;;8.70;99.90;;;;;;6094228;23;20036;-79
2023/12/09 03:41:35;;;;;;;9.82;3.75;;;8.60;99.90;;;;;;6094278;23;20021;-80
2023/12/09 03:44:01;;;;;;;9.40;3.00;;;8.60;99.90;;;;;;6094413;23;20007;-80
2023/12/09 03:46:27;;;;;;;8.20;3.22;;;8.60;99.90;;;;;;6092308;23;20010;-79
2023/12/09 03:48:52;;;;;;;12.30;3.70;;;8.70;99.90;;;;;;6092361;23;20590;-80
2023/12/09 03:51:18;;;;;;;8.40;2.70;;;8.70;99.90;;;;;;6093927;23;20040;-80
2023/12/09 03:53:43;;;;;;;12.18;2.80;;;8.70;99.90;;;;;;6092933;23;20006;-81
2023/12/09 03:56:13;;;;;;;13.32;3.85;;;8.70;99.90;;;;;;6091698;23;20017;-80
2023/12/09 03:58:38;;;;;;;7.20;3.25;;;8.70;99.90;;;;;;6091550;23;20002;-80
2023/12/09 04:01:04;;;;;;;6.43;2.45;;;8.60;99.90;;;;;;6090858;23;20026;-82
2023/12/09 04:03:30;;;;;;;13.98;3.88;;;8.70;99.90;;;;;;6092878;23;20062;-80
2023/12/09 04:05:56;;;;;;;9.07;3.50;;;8.70;99.90;;;;;;6093707;23;20006;-79
2023/12/09 04:08:21;;;;;;;10.93;3.28;;;8.60;99.90;;;;;;6091134;23;20077;-82
2023/12/09 04:10:47;;;;;;;12.98;3.47;;;8.60;99.90;;;;;;6094414;23;20007;-79
2023/12/09 04:13:12;;;;;;;8.77;3.28;;;8.60;99.90;;;;;;6091769;23;20010;-80
2023/12/09 04:15:38;;;;;;;7.03;2.70;;;8.60;99.90;;;;;;6094582;23;20450;-78
2023/12/09 04:18:07;;;;;;;9.20;3.30;;;8.60;99.90;;;;;;6095372;23;20002;-81
2023/12/09 04:20:33;;;;;;;10.02;3.63;;;8.60;99.90;;;;;;6094150;23;20003;-81
2023/12/09 04:22:59;;;;;;;7.32;2.85;;;8.60;99.90;;;;;;6095802;23;20010;-82
2023/12/09 04:25:25;;;;;;;8.50;2.90;;;8.60;99.90;;;;;;6093281;23;20066;-79
2023/12/09 04:27:52;;;;;;;9.35;3.10;;;8.60;99.90;;;;;;6093187;23;20050;-81
2023/12/09 04:30:18;;;;;;;10.20;3.00;;;8.60;99.90;;;;;;6092441;23;20352;-82
2023/12/09 04:32:43;;;;;;;8.48;2.70;;;8.60;99.90;;;;;;6093189;23;20062;-82
2023/12/09 04:35:09;;;;;;;8.82;3.45;;;8.60;99.90;;;;;;6094691;23;20022;-79
2023/12/09 04:37:35;;;;;;;10.90;3.85;;;8.60;99.90;;;;;;6093568;23;20086;-82
2023/12/09 04:40:04;;;;;;;8.60;2.70;;;8.60;99.90;;;;;;6094969;23;20025;-80
2023/12/09 04:42:30;;;;;;;6.80;2.08;;;8.60;99.90;;;;;;6092480;23;20026;-83
2023/12/09 04:44:55;;;;;;;4.63;1.90;;;8.60;99.90;;;;;;6093361;23;20057;-81
2023/12/09 04:47:21;;;;;;;4.22;1.65;;;8.70;99.90;;;;;;6090346;23;20410;-81
2023/12/09 04:49:46;;;;;;;8.15;2.47;;;8.70;99.90;;;;;;6088774;23;20006;-79
2023/12/09 04:52:12;;;;;;;7.13;2.35;;;8.70;99.90;;;;;;6088270;23;20010;-79
2023/12/09 04:54:37;;;;;;;7.10;2.60;;;8.70;99.90;;;;;;6089571;23;20003;-80
2023/12/09 04:57:04;;;;;;;10.73;3.55;;;8.70;99.90;;;;;;6088465;23;20006;-80
2023/12/09 04:59:30;;;;;;;8.05;2.80;;;8.60;99.90;;;;;;6090855;23;20064;-79
2023/12/09 05:01:56;;;;;;;6.32;2.25;;;8.60;99.90;;;;;;6089696;23;20010;-80
2023/12/09 05:04:21;;;;;;;6.97;2.20;;;8.60;99.90;;;;;;6090051;23;19998;-80
2023/12/09 05:06:47;;;;;;;7.00;2.80;;;8.60;99.90;;;;;;6090420;23;20014;-81
2023/12/09 05:09:13;;;;;;;8.43;2.25;;;8.50;99.90;;;;;;6089518;23;20012;-81
2023/12/09 05:11:39;;;;;;;12.60;3.20;;;8.50;99.90;;;;;;6089563;23;20037;-78
2023/12/09 05:14:05;;;;;;;5.85;2.35;;;8.50;99.90;;;;;;6088579;23;20006;-82
2023/12/09 05:16:32;;;;;;;9.77;2.67;;;8.50;99.90;;;;;;6092306;23;20133;-80
2023/12/09 05:18:57;;;;;;;6.35;2.33;;;8.50;99.90;;;;;;6090982;23;20612;-80
2023/12/09 05:21:23;;;;;;;4.78;2.30;;;8.50;99.90;;;;;;6091143;23;20002;-79
2023/12/09 05:23:48;;;;;;;8.65;2.95;;;8.50;99.90;;;;;;6092950;23;20006;-80
2023/12/09 05:26:28;;;;;;;6.57;2.70;;;8.50;99.90;;;;;;6095592;23;20018;-85
2023/12/09 05:28:55;;;;;;;7.25;2.38;;;8.50;99.90;;;;;;6095456;23;19998;-86
2023/12/09 05:31:22;;;;;;;5.47;2.38;;;8.50;99.90;;;;;;6071184;23;20326;-85
2023/12/09 05:33:48;;;;;;;9.27;2.60;;;8.50;99.90;;;;;;6069338;23;20003;-83
2023/12/09 05:36:13;;;;;;;6.40;2.28;;;8.50;99.90;;;;;;6067418;23;20017;-83
2023/12/09 05:38:41;;;;;;;6.45;2.28;;;8.40;99.90;;;;;;6067110;23;20034;-83
2023/12/09 05:41:07;;;;;;;5.40;2.20;;;8.50;99.90;;;;;;6067040;23;19999;-83
2023/12/09 05:43:34;;;;;;;7.20;2.45;;;8.40;99.90;;;;;;6065648;23;20010;-84
2023/12/09 05:45:59;;;;;;;9.15;3.30;;;8.40;99.90;;;;;;6068856;23;20018;-84
2023/12/09 05:48:25;;;;;;;5.32;2.17;;;8.40;99.90;;;;;;6066973;23;20027;-84
2023/12/09 05:50:50;;;;;;;12.90;3.60;;;8.30;99.90;;;;;;6068763;23;20464;-87
2023/12/09 05:53:16;;;;;;;13.50;4.10;;;8.30;99.90;;;;;;6069187;23;20006;-86
2023/12/09 05:55:42;;;;;;;11.77;3.15;;;8.30;99.90;;;;;;6071846;23;20009;-87
2023/12/09 05:58:07;;;;;;;7.82;3.13;;;8.30;99.90;;;;;;6072156;23;20034;-92
2023/12/09 06:00:33;;;;;;;8.88;2.67;;;8.30;99.90;;;;;;6072434;23;20017;-86
2023/12/09 06:02:58;;;;;;;11.27;3.30;;;8.30;99.90;;;;;;6074192;23;20006;-87
2023/12/09 06:05:24;;;;;;;6.65;2.58;;;8.20;99.90;;;;;;6076647;23;20014;-87
2023/12/09 06:07:50;;;;;;;9.73;2.92;;;8.20;99.90;;;;;;6068559;23;20006;-87
2023/12/09 06:10:15;;;;;;;7.75;3.08;;;8.30;99.90;;;;;;6093710;23;20007;-87
2023/12/09 06:12:41;;;;;;;8.52;2.60;;;8.30;99.90;;;;;;6094196;23;20374;-87
2023/12/09 06:15:07;;;;;;;8.20;2.22;;;8.20;99.90;;;;;;6093247;23;19998;-87
2023/12/09 06:17:33;;;;;;;9.60;2.80;;;8.20;99.90;;;;;;6067402;23;20097;-86
2023/12/09 06:19:58;;;;;;;9.02;2.50;;;8.20;99.90;;;;;;6067896;23;20036;-87
2023/12/09 06:22:24;;;;;;;6.72;2.38;;;8.30;99.90;;;;;;6068356;23;20093;-86
2023/12/09 06:24:51;;;;;;;6.47;2.03;;;8.30;99.90;;;;;;6068059;23;20017;-86
2023/12/09 06:27:17;;;;;;;13.25;3.58;;;8.20;99.90;;;;;;6068272;23;20013;-86
2023/12/09 06:29:47;;;;;;;7.15;2.85;;;8.20;99.90;;;;;;6068408;23;20065;-88
2023/12/09 06:32:13;;;;;;;9.95;3.40;;;8.20;99.90;;;;;;6093613;23;20010;-90
2023/12/09 06:34:39;;;;;;;8.27;2.67;;;8.20;99.90;;;;;;6070009;23;20078;-88
2023/12/09 06:37:04;;;;;;;15.90;4.28;;;8.20;99.90;;;;;;6069093;23;20029;-88
2023/12/09 06:39:30;;;;;;;7.82;2.63;;;8.20;99.90;;;;;;6069053;23;20006;-87
2023/12/09 06:41:55;;;;;;;11.55;3.60;;;8.10;99.90;;;;;;6069631;23;20002;-87
2023/12/09 06:44:21;;;;;;;11.07;3.00;;;8.10;99.90;;;;;;6069131;23;20074;-86
2023/12/09 06:46:47;;;;;;;8.32;2.55;;;8.10;99.90;;;;;;6095173;23;20003;-86
2023/12/09 06:49:13;;;;;;;8.68;2.72;;;8.10;99.90;;;;;;6069801;23;20045;-87
2023/12/09 06:51:41;;;;;;;4.97;1.92;;;8.10;99.90;;;;;;6070384;23;20485;-87
2023/12/09 06:54:06;;;;;;;7.18;2.92;;;8.20;99.90;;;;;;6070520;23;20006;-89
2023/12/09 06:56:32;;;;;;;5.85;2.40;;;8.20;99.90;;;;;;6069820;23;20007;-91
2023/12/09 06:58:58;;;;;;;10.18;3.38;;;8.20;99.90;;;;;;6069347;23;20035;-90
2023/12/09 07:01:25;;;;;;;5.38;2.38;;;8.10;99.90;;;;;;6070624;23;20357;-88
2023/12/09 07:03:50;;;;;;;7.82;2.13;;;8.10;99.90;;;;;;6069689;23;20041;-90
2023/12/09 07:06:20;;;;;;;9.93;3.00;;;8.20;99.90;;;;;;6068851;23;20002;-92
2023/12/09 07:08:46;;;;;;;9.27;2.58;;;8.20;99.90;;;;;;6067501;23;20010;-86
2023/12/09 07:11:11;;;;;;;8.20;2.58;;;8.10;99.90;;;;;;6068224;23;20063;-87
2023/12/09 07:13:38;;;;;;;9.38;2.70;;;8.20;99.90;;;;;;6068198;23;20050;-89
2023/12/09 07:16:06;;;;;;;12.65;3.33;;;8.20;99.90;;;;;;6068059;23;20029;-88
2023/12/09 07:18:31;;;;;;;5.55;2.03;;;8.20;99.90;;;;;;6067870;23;20353;-89
2023/12/09 07:20:57;;;;;;;8.88;2.45;;;8.20;99.90;;;;;;6093912;23;20007;-86
2023/12/09 07:23:22;;;;;;;5.97;2.00;;;8.20;99.90;;;;;;6069080;23;20003;-88
2023/12/09 07:25:48;;;;;;;5.35;1.95;;;8.20;99.90;;;;;;6063240;23;20023;-84
2023/12/09 07:28:14;;;;;;;5.32;2.10;;;8.30;99.90;;;;;;6062760;23;20067;-85
2023/12/09 07:30:39;;;;;;;9.85;2.60;;;8.30;99.90;;;;;;6063650;23;20224;-85
2023/12/09 07:33:05;;;;;;;9.05;2.50;;;8.30;99.90;;;;;;6063531;23;20006;-85
2023/12/09 07:35:31;;;;;;;6.82;2.10;;;8.30;99.90;;;;;;6073991;23;20002;-88
2023/12/09 07:37:56;;;;;;;3.75;1.65;;;8.30;99.90;;;;;;6071306;23;20027;-88
2023/12/09 07:40:22;;;;;;;3.88;1.60;;;8.30;99.90;;;;;;6075755;23;20046;-87
2023/12/09 07:42:48;;;;;;;6.53;1.95;;;8.30;99.90;;;;;;6073329;23;20007;-90
2023/12/09 07:45:13;;;;;;;7.65;2.45;;;8.30;99.90;;;;;;6068983;23;20090;-88
2023/12/09 07:47:39;;;;;;;6.18;1.95;;;8.30;99.90;;;;;;6068364;23;20054;-87
2023/12/09 07:50:05;;;;;;;6.85;1.85;;;8.30;99.90;;;;;;6064887;23;20097;-87
2023/12/09 07:52:30;;;;;;;6.35;1.80;;;8.30;99.90;;;;;;6063801;23;20361;-86
2023/12/09 07:54:56;;;;;;;2.35;1.30;;;8.30;99.90;;;;;;6068561;23;20529;-86
2023/12/09 07:57:21;;;;;;;3.20;1.50;;;8.30;99.90;;;;;;6068306;23;20029;-86
2023/12/09 07:59:47;;;;;;;6.95;1.90;;;8.30;99.90;;;;;;6067361;23;19999;-86
2023/12/09 08:02:13;;;;;;;7.50;1.90;;;8.40;99.90;;;;;;6064448;23;20002;-85
2023/12/09 08:04:38;;;;;;;11.18;2.60;;;8.40;99.90;;;;;;6063969;23;20482;-86
2023/12/09 08:07:04;;;;;;;5.28;2.13;;;8.30;99.90;;;;;;6064535;23;20094;-87
2023/12/09 08:09:30;;;;;;;6.90;2.53;;;8.40;99.90;;;;;;6064669;23;20397;-86
2023/12/09 08:11:55;;;;;;;5.30;2.30;;;8.40;99.90;;;;;;6066934;23;20003;-88
2023/12/09 08:14:21;;;;;;;8.20;2.60;;;8.40;99.90;;;;;;6065333;23;20017;-85
2023/12/09 08:16:47;;;;;;;5.97;1.92;;;8.40;99.90;;;;;;6064836;23;20003;-85
2023/12/09 08:19:13;;;;;;;4.78;1.70;;;8.50;99.90;;;;;;6065304;23;20003;-87
2023/12/09 08:21:39;;;;;;;7.82;2.00;;;8.40;99.90;;;;;;6065158;23;20015;-87
2023/12/09 08:24:04;;;;;;;4.35;1.58;;;8.40;99.90;;;;;;6064132;23;20393;-86
2023/12/09 08:26:30;;;;;;;5.63;1.83;;;8.40;99.90;;;;;;6064457;23;20354;-84
2023/12/09 08:28:55;;;;;;;6.72;1.85;;;8.50;99.90;;;;;;6068080;23;20013;-85
2023/12/09 08:31:21;;;;;;;6.13;1.70;;;8.50;99.90;;;;;;6074480;23;20074;-85
2023/12/09 08:33:47;;;;;;;5.25;1.67;;;8.50;99.90;;;;;;6089815;23;20005;-89
2023/12/09 08:36:12;;;;;;;6.00;1.90;;;8.50;99.90;;;;;;6089527;23;20015;-88
2023/12/09 08:38:38;;;;;;;7.07;2.08;;;8.50;99.90;;;;;;6088837;23;20027;-88
2023/12/09 08:41:04;;;;;;;10.00;2.20;;;8.60;99.90;;;;;;6089794;23;20026;-89
2023/12/09 08:43:29;;;;;;;8.15;2.70;;;8.60;99.90;;;;;;6072761;23;20443;-84
2023/12/09 08:45:55;;;;;;;7.47;1.90;;;8.50;99.90;;;;;;6069995;23;20022;-84
2023/12/09 08:48:20;;;;;;;4.30;1.90;;;8.50;99.90;;;;;;6066934;23;20426;-85
2023/12/09 08:50:46;;;;;;;5.53;1.63;;;8.60;99.90;;;;;;6067932;23;20390;-88
2023/12/09 08:53:12;;;;;;;5.93;1.95;;;8.60;99.90;;;;;;6068157;23;20070;-84
2023/12/09 08:55:37;;;;;;;4.20;1.92;;;8.60;99.90;;;;;;6068088;23;20697;-85
2023/12/09 08:58:03;;;;;;;5.07;1.40;;;8.60;99.90;;;;;;6068733;23;20032;-84
2023/12/09 09:00:30;;;;;;;5.43;2.08;;;8.60;99.90;;;;;;6068342;23;20006;-84
2023/12/09 09:02:55;;;;;;;7.35;1.98;;;8.60;99.90;;;;;;6066266;23;20078;-85
2023/12/09 09:05:22;;;;;;;4.10;1.38;;;8.70;99.90;;;;;;6074227;23;20299;-85
2023/12/09 09:07:48;;;;;;;6.13;1.60;;;8.70;99.90;;;;;;6072139;23;20013;-87
2023/12/09 09:10:15;;;;;;;6.40;2.00;;;8.60;99.90;;;;;;6072199;23;20003;-85
2023/12/09 09:12:40;;;;;;;7.40;2.22;;;8.70;99.90;;;;;;6072166;23;20500;-86
2023/12/09 09:15:07;;;;;;;5.75;1.92;;;8.70;99.90;;;;;;6073929;23;20002;-85
2023/12/09 09:17:34;;;;;;;6.53;2.15;;;8.70;99.90;;;;;;6077990;23;20445;-88
2023/12/09 09:20:00;;;;;;;4.90;1.70;;;8.70;99.90;;;;;;6073559;23;20054;-86
2023/12/09 09:22:26;;;;;;;3.70;1.58;;;8.70;99.90;;;;;;6073551;23;20469;-85
2023/12/09 09:24:51;;;;;;;3.10;1.15;;;8.70;99.90;;;;;;6076845;23;20006;-87
2023/12/09 09:27:17;;;;;;;7.47;2.10;;;8.80;99.90;;;;;;6076331;23;20066;-87
2023/12/09 09:29:42;;;;;;;5.28;1.70;;;8.70;99.90;;;;;;6103377;23;20010;-85
2023/12/09 09:32:08;;;;;;;5.40;1.40;;;8.70;99.90;;;;;;6076489;23;20010;-86
2023/12/09 09:34:34;;;;;;;4.38;1.40;;;8.70;99.90;;;;;;6100957;23;20112;-85
2023/12/09 09:36:59;;;;;;;3.42;1.33;;;8.80;99.90;;;;;;6076997;23;20010;-85
2023/12/09 09:39:25;;;;;;;4.07;1.35;;;8.70;99.90;;;;;;6075848;23;20010;-88
2023/12/09 09:42:18;;;;;;;3.45;1.33;;;8.80;99.90;;;;;;6077518;23;20002;-85
2023/12/09 09:44:53;;;;;;;3.70;1.30;;;8.80;99.90;;;;;;6076588;23;20032;-84
2023/12/09 09:47:19;;;;;;;3.25;1.30;;;8.90;99.90;;;;;;6076819;23;20014;-86
2023/12/09 09:49:46;;;;;;;3.80;1.23;;;8.90;99.90;;;;;;6105760;23;20007;-85
2023/12/09 09:52:14;;;;;;;4.30;1.58;;;8.90;99.90;;;;;;6089994;23;20006;-90
2023/12/09 09:54:42;;;;;;;2.30;1.40;;;8.90;99.60;;;;;;6094785;23;20025;-88
2023/12/09 09:57:09;;;;;;;4.03;1.50;;;8.80;99.60;;;;;;6088126;23;20010;-88
2023/12/09 09:59:35;;;;;;;3.35;1.35;;;8.80;99.50;;;;;;6084707;23;20046;-87
2023/12/09 10:02:04;;;;;;;6.10;1.70;;;8.80;99.70;;;;;;6081223;23;20074;-86
2023/12/09 10:04:30;;;;;;;6.95;1.60;;;8.80;99.70;;;;;;6085502;23;20018;-86
2023/12/09 10:06:58;;;;;;;6.05;1.30;;;8.80;99.70;;;;;;6086220;23;20010;-89
2023/12/09 10:09:23;;;;;;;4.78;1.70;;;8.80;99.50;;;;;;6084101;23;20006;-87
2023/12/09 10:11:49;;;;;;;5.75;1.50;;;8.80;99.60;;;;;;6076694;23;20204;-86
2023/12/09 10:14:16;;;;;;;2.13;1.27;;;8.80;99.60;;;;;;6077708;23;19998;-85
2023/12/09 10:16:42;;;;;;;6.03;2.00;;;8.90;99.60;;;;;;6079981;23;20030;-84
2023/12/09 10:19:09;;;;;;;6.97;2.20;;;8.90;99.50;;;;;;6079813;23;20037;-85
2023/12/09 10:21:36;;;;;;;4.28;1.70;;;9.00;99.30;;;;;;6074176;23;19999;-86
2023/12/09 10:24:03;;;;;;;7.20;2.42;;;9.10;99.30;;;;;;6074912;23;20029;-85
2023/12/09 10:26:29;;;;;;;5.10;1.60;;;9.10;99.00;;;;;;6071737;23;20062;-87
2023/12/09 10:28:56;;;;;;;5.35;1.48;;;9.10;98.90;;;;;;6072120;23;20303;-86
2023/12/09 10:31:22;;;;;;;4.72;1.50;;;9.10;98.80;;;;;;6071708;23;20007;-88
2023/12/09 10:33:49;;;;;;;4.75;1.65;;;9.20;98.80;;;;;;6073428;23;20003;-85
2023/12/09 10:36:14;;;;;;;3.30;1.48;;;9.20;98.70;;;;;;6071780;23;20014;-88
2023/12/09 10:38:43;;;;;;;3.40;1.42;;;9.20;98.50;;;;;;6071712;23;20058;-84
2023/12/09 10:41:13;;;;;;;3.75;1.30;;;9.20;98.50;;;;;;6077591;23;20191;-85
2023/12/09 10:43:40;;;;;;;6.05;1.42;;;9.30;98.50;;;;;;6074168;23;20005;-86
2023/12/09 10:46:07;;;;;;;7.18;1.55;;;9.30;98.40;;;;;;6073702;23;20078;-85
2023/12/09 10:48:32;;;;;;;2.53;1.20;;;9.30;98.40;;;;;;6070846;23;20502;-87
2023/12/09 10:50:58;;;;;;;4.55;1.50;;;9.40;98.10;;;;;;6069236;23;20010;-84
2023/12/09 10:53:24;;;;;;;6.32;1.65;;;9.30;98.10;;;;;;6074907;23;20047;-88
2023/12/09 10:55:51;;;;;;;2.67;1.50;;;9.30;98.20;;;;;;6080915;23;20007;-88
2023/12/09 10:58:17;;;;;;;3.22;1.23;;;9.30;98.20;;;;;;6082193;23;20003;-88
2023/12/09 11:00:45;;;;;;;2.20;1.17;;;9.30;98.00;;;;;;6076754;23;20007;-85
2023/12/09 11:03:11;;;;;;;3.40;1.30;;;9.30;98.40;;;;;;6077945;23;20437;-84
2023/12/09 11:05:48;;;;;;;5.38;1.40;;;9.40;98.10;;;;;;6074074;23;20007;-87
2023/12/09 11:08:14;;;;;;;4.07;1.17;;;9.40;98.00;;;;;;6077704;23;20035;-85
2023/12/09 11:10:40;;;;;;;6.30;2.10;;;9.40;97.90;;;;;;6081896;23;19999;-88
2023/12/09 11:13:06;;;;;;;4.43;1.38;;;9.40;97.80;;;;;;6079576;23;20098;-88
2023/12/09 11:15:32;;;;;;;4.35;1.67;;;9.50;97.70;;;;;;6079675;23;19999;-85
2023/12/09 11:18:09;;;;;;;3.85;1.58;;;9.50;97.40;;;;;;6079809;23;20003;-86
2023/12/09 11:20:38;;;;;;;4.32;1.35;;;9.50;97.50;;;;;;6080523;23;20007;-86
2023/12/09 11:23:07;;;;;;;3.15;1.20;;;9.50;97.40;;;;;;6081635;23;20003;-86
2023/12/09 11:25:32;;;;;;;4.63;1.60;;;9.50;97.40;;;;;;6082504;23;20042;-86
2023/12/09 11:27:58;;;;;;;4.47;1.50;;;9.50;97.10;;;;;;6081277;23;20440;-88
2023/12/09 11:30:40;;;;;;;4.53;1.42;;;9.40;96.90;;;;;;6083154;23;20018;-89
2023/12/09 11:33:06;;;;;;;3.00;1.27;;;9.40;96.90;;;;;;6085188;23;20002;-87
2023/12/09 11:35:36;;;;;;;5.30;1.33;;;9.40;97.00;;;;;;6083324;23;20086;-88
2023/12/09 11:38:05;;;;;;;5.18;1.60;;;9.60;97.10;;;;;;6080998;23;20062;-91
2023/12/09 11:40:31;;;;;;;4.13;1.33;;;9.50;96.90;;;;;;6084826;23;20034;-87
2023/12/09 11:42:59;;;;;;;1.77;1.00;;;9.50;96.90;;;;;;6083355;23;20009;-87
2023/12/09 11:45:25;;;;;;;3.95;1.35;;;9.50;97.10;;;;;;6080755;23;20007;-87
2023/12/09 11:47:53;;;;;;;2.10;1.20;;;9.40;97.00;;;;;;6077695;23;19987;-87
2023/12/09 11:50:18;;;;;;;3.15;1.20;;;9.50;97.00;;;;;;6077969;23;20013;-85
2023/12/09 11:52:45;;;;;;;5.15;1.30;;;9.30;97.00;;;;;;6079356;23;20027;-86
2023/12/09 11:55:11;;;;;;;6.15;1.30;;;9.30;97.00;;;;;;6077679;23;20074;-82
2023/12/09 11:57:39;;;;;;;2.67;1.25;;;9.30;97.30;;;;;;6075820;23;20007;-85
2023/12/09 12:00:11;;;;;;;4.90;1.50;;;9.40;97.10;;;;;;6079246;23;20003;-85
2023/12/09 12:02:39;;;;;;;6.90;1.83;;;9.30;96.80;;;;;;6077222;23;20041;-86
2023/12/09 12:05:07;;;;;;;5.82;1.48;;;9.30;97.00;;;;;;6075960;23;20183;-85
2023/12/09 12:07:34;;;;;;;4.38;1.50;;;9.30;97.10;;;;;;6077808;23;20149;-85
2023/12/09 12:09:59;;;;;;;6.07;1.45;;;9.30;97.20;;;;;;6074799;23;20010;-87
2023/12/09 12:12:25;;;;;;;5.22;1.70;;;9.20;97.00;;;;;;6073228;23;20082;-85
2023/12/09 12:14:51;;;;;;;5.00;1.48;;;9.20;96.90;;;;;;6073148;23;20022;-85
2023/12/09 12:17:17;;;;;;;4.82;1.67;;;9.20;97.00;;;;;;6073702;23;20033;-85
2023/12/09 12:19:47;;;;;;;4.78;1.63;;;9.20;97.50;;;;;;6074560;23;20391;-85
2023/12/09 12:22:13;;;;;;;5.75;2.00;;;9.20;97.30;;;;;;6076520;23;20010;-89
2023/12/09 12:24:43;;;;;;;5.25;1.40;;;9.20;97.30;;;;;;6086874;23;20015;-90
2023/12/09 12:27:09;;;;;;;5.80;1.50;;;9.20;97.40;;;;;;6119130;23;20045;-91
2023/12/09 12:29:37;;;;;;;3.58;1.67;;;9.10;97.40;;;;;;6093424;23;20010;-87
2023/12/09 12:32:05;;;;;;;4.50;1.65;;;9.10;97.60;;;;;;6078588;23;20003;-86
2023/12/09 12:34:31;;;;;;;4.63;1.80;;;9.10;97.80;;;;;;6081658;23;20045;-89
2023/12/09 12:36:58;;;;;;;3.20;1.63;;;9.20;97.80;;;;;;6083913;23;20006;-88
2023/12/09 12:39:23;;;;;;;3.70;1.42;;;9.20;97.80;;;;;;6080173;23;20456;-85
2023/12/09 12:41:49;;;;;;;2.60;1.23;;;9.20;97.80;;;;;;6079637;23;20069;-89
2023/12/09 12:44:15;;;;;;;2.67;1.52;;;9.10;97.90;;;;;;6081006;23;20415;-86
2023/12/09 12:46:41;;;;;;;3.90;1.52;;;9.20;98.00;;;;;;6084924;23;20013;-89
2023/12/09 12:49:07;;;;;;;3.92;1.50;;;9.20;98.10;;;;;;6079537;23;20011;-85
2023/12/09 12:51:33;;;;;;;7.80;1.70;;;9.10;98.10;;;;;;6079200;23;20002;-85